Chula Vista, CA (91914)

11:41 PM PDT on October 01, 2014 (GMT -0700)
Eastlake / Lower Otay Lake Chula Vista | Change Station
CLOSE
Current Station
Personal Weather Station
Location: Chula Vista, CA
Elevation: 174 m
Nearby Weather Stations
Active Advisory: Heat Advisory

Elev 174 m 32.64 °N, 116.94 °W | Updated 14 seconds ago

Clear
Clear
18.0 °C
Feels Like 18.0 °C
N
0.0
Wind Variable Wind from SSE
Gusts 0.0 km/h

Today
High -- | Low -- °C
--% Chance of Precip.
Yesterday
High -- | Low -- °C
Precip. -- mm
6:41 AM 6:32 PM
First Quarter, 55% visible
Pressure 1011 hPa
Visibility 16.1 kilometers
Clouds Clear
Dew Point 13 °C
Humidity 73%
Rainfall 0 mm
Snow Depth 0 in , 1 in , 0 in
UV 0.0 out of 12
Pollen 5.40 out of 12
Ozone Good
PM2.5 Good
Flu Activity Not available.
METAR KSDM 020553Z AUTO 00000KT 10SM CLR 18/16 A2987 RMK AO2 SLP110 T01780156 10228 20178 50005 TSNO

More Conditions Fewer Conditions

Pressure 1011 hPa
Visibility 16.1 kilometers
Clouds Clear
Dew Point 13 °C
Humidity 73%
Rainfall 0 mm
Snow Depth 0 in , 1 in , 0 in
UV 0.0 out of 12
Pollen 5.40 out of 12
Ozone Good
PM2.5 Good
Flu Activity Not available.
METAR KSDM 020553Z AUTO 00000KT 10SM CLR 18/16 A2987 RMK AO2 SLP110 T01780156 10228 20178 50005 TSNO

More Conditions Fewer Conditions

10-Day Weather Forecast

Almanac

Astronomy

Oct. 01, 2014 Rise Set
Actual Time 6:41 AM PDT 6:32 PM PDT
Civil Twilight 6:17 AM PDT 6:56 PM PDT
Nautical Twilight 5:48 AM PDT 7:25 PM PDT
Astronomical Twilight 5:20 AM PDT 7:54 PM PDT
Moon 1:33 PM PDT (10/1) No Moon Set
Length of Visible Light 12h 39m
Length of Day
11h 50m
Tomorrow will be 1m 58s shorter.
First Quarter, 55% of the Moon is Illuminated
Oct 2
First Quarter
Oct 8
Full
Oct 15
Last Quarter
Oct 23
New
Oct 30
First Quarter

Community

WunderPhotos

Upload Photos

1,758,198 photos uploaded!

WunderBlogs® & News

Nearby

Air Quality

  Air Quality AQ Index Pollutant
Yesterday Good
OZONE
Yesterday Good
PM2.5
Current Good
PM2.5
Current Good
OZONE
Wednesday Good
PM2.5
Wednesday Good
OZONE
Thursday Moderate
OZONE
Thursday Good
PM2.5

Snow Depth

Station Depth Elevation
Sonora Pass 0 in 8800 ft
Leavitt Meadows 1 in 7200 ft
Independence Camp 0 in 7000 ft
Heavenly Valley 0 in 8850 ft
Poison Flat 0 in 7900 ft

Earthquake Activity

City Distance Mag. Time & Date
Avalon, California 139 kilometers 3.2 10:12 PM PDT
2014-10-01
Avalon, California 138 kilometers 2.6 1:28 PM PDT
2014-09-30
Minimum magnitude displayed is 2.5.

Coastal Water Temperatures

Place Temperature
La Jolla, CA 22.2 °C
San Diego, CA 23.3 °C

Nearby Weather Stations